Time;durP1;ratioP1;P1;durP2;ratioP2;P2;SDS_P1;SDS_P2;PMS_P1;PMS_P2;Temp;Humidity;BMP_temperature;BMP_pressure;BME280_temperature;BME280_humidity;BME280_pressure;Samples;Min_cycle;Max_cycle;Signal;HPM_P1;HPM_P2
2023/09/11 00:00:41;;;;;;;14.35;8.02;;;21.00;99.90;;;;;;4990762;28;20446;-88
2023/09/11 00:03:07;;;;;;;13.88;7.53;;;21.00;99.90;;;;;;4974786;28;20450;-86
2023/09/11 00:05:32;;;;;;;14.13;7.57;;;21.00;99.90;;;;;;4972800;28;20058;-87
2023/09/11 00:07:58;;;;;;;11.38;7.18;;;21.00;99.90;;;;;;4973103;28;20399;-86
2023/09/11 00:10:24;;;;;;;15.07;7.55;;;21.00;99.90;;;;;;4971043;28;20070;-87
2023/09/11 00:12:49;;;;;;;13.35;7.40;;;20.90;99.90;;;;;;4972018;28;20531;-88
2023/09/11 00:15:15;;;;;;;12.20;7.53;;;20.90;99.90;;;;;;4989118;28;20065;-86
2023/09/11 00:17:41;;;;;;;13.90;7.28;;;20.90;99.90;;;;;;4991531;28;20038;-86
2023/09/11 00:20:10;;;;;;;14.98;6.47;;;20.90;99.90;;;;;;4991465;28;20023;-88
2023/09/11 00:22:36;;;;;;;12.68;6.85;;;20.90;99.90;;;;;;4991435;28;20026;-86
2023/09/11 00:25:03;;;;;;;10.93;6.28;;;20.80;99.90;;;;;;4992253;28;20027;-87
2023/09/11 00:27:29;;;;;;;13.50;6.85;;;20.80;99.90;;;;;;4992096;28;20486;-85
2023/09/11 00:29:55;;;;;;;8.60;5.88;;;20.80;99.90;;;;;;4991415;28;20111;-85
2023/09/11 00:32:20;;;;;;;11.15;6.22;;;20.80;99.90;;;;;;4991362;28;20033;-86
2023/09/11 00:34:46;;;;;;;12.38;7.07;;;20.80;99.90;;;;;;4989927;28;20112;-86
2023/09/11 00:37:12;;;;;;;10.48;5.90;;;20.70;99.90;;;;;;4979458;28;20046;-86
2023/09/11 00:39:37;;;;;;;11.48;6.18;;;20.60;99.90;;;;;;4971881;28;20023;-85
2023/09/11 00:42:03;;;;;;;14.18;6.78;;;20.60;99.90;;;;;;4972524;28;20093;-86
2023/09/11 00:44:29;;;;;;;14.63;6.10;;;20.50;99.90;;;;;;4971729;28;20058;-87
2023/09/11 00:46:55;;;;;;;10.40;5.90;;;20.60;99.90;;;;;;4970363;28;20494;-86
2023/09/11 00:49:22;;;;;;;10.07;6.13;;;20.60;99.90;;;;;;4971514;28;20027;-86
2023/09/11 00:51:50;;;;;;;14.07;5.88;;;20.60;99.90;;;;;;4971411;28;20027;-87
2023/09/11 00:54:17;;;;;;;11.18;5.88;;;20.60;99.90;;;;;;4971391;28;20078;-87
2023/09/11 00:56:42;;;;;;;10.05;5.95;;;20.60;99.90;;;;;;4971399;28;20039;-85
2023/09/11 00:59:08;;;;;;;13.30;6.22;;;20.60;99.90;;;;;;4973553;28;22028;-84
2023/09/11 01:01:35;;;;;;;12.35;6.35;;;20.50;99.90;;;;;;4995808;28;20026;-86
2023/09/11 01:04:01;;;;;;;10.27;6.63;;;20.50;99.90;;;;;;5012310;28;20025;-86
2023/09/11 01:06:28;;;;;;;11.45;7.05;;;20.60;99.90;;;;;;5000266;28;20018;-86
2023/09/11 01:08:55;;;;;;;15.60;7.60;;;20.50;99.90;;;;;;4990098;28;20416;-86
2023/09/11 01:11:21;;;;;;;12.93;7.57;;;20.50;99.90;;;;;;4990006;28;20030;-86
2023/09/11 01:13:47;;;;;;;13.05;7.80;;;20.50;99.90;;;;;;4989721;28;20029;-85
2023/09/11 01:16:20;;;;;;;12.80;7.72;;;20.50;99.90;;;;;;4992812;28;20406;-86
2023/09/11 01:18:51;;;;;;;15.80;8.85;;;20.60;99.90;;;;;;4992803;28;20034;-86
2023/09/11 01:24:03;;;;;;;12.57;8.07;;;20.50;99.90;;;;;;5374802;23;20054;-87
2023/09/11 01:26:45;;;;;;;10.55;7.72;;;20.40;99.90;;;;;;4991745;28;20105;-88
2023/09/11 01:29:28;;;;;;;13.02;8.00;;;20.50;99.90;;;;;;4991911;28;20604;-91
2023/09/11 01:31:54;;;;;;;13.07;8.13;;;20.50;99.90;;;;;;4991444;28;20105;-91
2023/09/11 01:34:20;;;;;;;14.73;8.05;;;20.40;99.90;;;;;;4989403;28;20030;-88
2023/09/11 01:36:46;;;;;;;12.40;7.80;;;20.40;99.90;;;;;;4990882;28;20456;-89
2023/09/11 01:39:12;;;;;;;13.57;7.72;;;20.40;99.90;;;;;;4989857;28;20299;-90
2023/09/11 01:41:43;;;;;;;14.75;8.10;;;20.30;99.90;;;;;;4990406;28;20023;-88
2023/09/11 01:44:37;;;;;;;17.30;8.15;;;20.30;99.90;;;;;;4990506;28;20034;-86
2023/09/11 01:47:05;;;;;;;12.77;8.07;;;20.20;99.90;;;;;;4989638;28;20014;-88
2023/09/11 01:49:32;;;;;;;15.43;8.05;;;20.20;99.90;;;;;;4989726;28;20200;-91
2023/09/11 01:52:00;;;;;;;14.07;8.27;;;20.20;99.90;;;;;;4989571;28;20076;-90
2023/09/11 01:54:26;;;;;;;19.88;9.73;;;20.20;99.90;;;;;;5008861;28;20036;-87
2023/09/11 01:56:53;;;;;;;13.93;9.13;;;20.10;99.90;;;;;;5010842;28;20040;-88
2023/09/11 01:59:19;;;;;;;13.70;8.30;;;20.00;99.90;;;;;;5010340;28;20047;-87
2023/09/11 02:01:44;;;;;;;15.15;8.70;;;20.10;99.90;;;;;;4996516;28;20033;-91
2023/09/11 02:04:10;;;;;;;19.17;9.70;;;20.20;99.90;;;;;;4992760;28;20465;-88
2023/09/11 02:06:36;;;;;;;21.42;9.80;;;20.10;99.90;;;;;;4991495;28;20031;-89
2023/09/11 02:09:02;;;;;;;23.20;10.85;;;20.20;99.90;;;;;;4990528;28;20106;-87
2023/09/11 02:11:28;;;;;;;16.08;10.27;;;20.10;99.90;;;;;;4989106;28;20121;-87
2023/09/11 02:13:54;;;;;;;21.35;10.55;;;20.20;99.90;;;;;;4991187;28;20065;-89
2023/09/11 02:16:19;;;;;;;22.65;11.13;;;20.20;99.90;;;;;;4991569;28;20058;-89
2023/09/11 02:18:45;;;;;;;17.25;10.80;;;20.20;99.90;;;;;;4989178;28;20070;-88
2023/09/11 02:21:11;;;;;;;19.85;10.77;;;20.30;99.90;;;;;;4993864;28;20029;-87
2023/09/11 02:23:37;;;;;;;19.27;10.85;;;20.20;99.90;;;;;;4994506;28;20417;-88
2023/09/11 02:26:02;;;;;;;19.95;11.45;;;20.20;99.90;;;;;;4993722;28;20117;-91
2023/09/11 02:28:28;;;;;;;19.27;10.90;;;20.20;99.90;;;;;;4995425;28;20038;-91
2023/09/11 02:30:57;;;;;;;18.88;11.18;;;20.20;99.90;;;;;;4995333;28;20015;-91
2023/09/11 02:33:23;;;;;;;17.98;11.20;;;20.20;99.90;;;;;;4994306;28;20041;-89
2023/09/11 02:36:02;;;;;;;19.77;10.63;;;20.30;99.90;;;;;;4994405;28;20026;-89
2023/09/11 02:38:28;;;;;;;18.50;11.02;;;20.40;99.90;;;;;;4993573;28;20034;-88
2023/09/11 02:40:54;;;;;;;16.55;10.15;;;20.30;99.90;;;;;;4994309;28;20478;-89
2023/09/11 02:43:19;;;;;;;16.88;9.82;;;20.30;99.90;;;;;;4993590;28;20023;-91
2023/09/11 02:45:45;;;;;;;17.67;10.55;;;20.40;99.90;;;;;;4993419;28;20041;-90
2023/09/11 02:48:11;;;;;;;18.20;9.93;;;20.40;99.90;;;;;;4993467;28;20022;-88
2023/09/11 02:50:40;;;;;;;17.42;9.75;;;20.40;99.90;;;;;;4993347;28;20034;-90
2023/09/11 02:53:09;;;;;;;14.23;9.93;;;20.40;99.90;;;;;;4981672;28;20031;-91
2023/09/11 02:55:42;;;;;;;14.75;10.23;;;20.40;99.90;;;;;;4974213;28;20031;-91
2023/09/11 02:58:07;;;;;;;20.92;10.07;;;20.40;99.90;;;;;;4973842;28;20031;-89
2023/09/11 03:00:34;;;;;;;19.08;10.35;;;20.40;99.90;;;;;;4974693;28;20078;-92
2023/09/11 03:03:01;;;;;;;15.60;9.60;;;20.40;99.90;;;;;;4973840;28;20033;-89
2023/09/11 03:05:27;;;;;;;17.08;9.65;;;20.40;99.90;;;;;;4974677;28;20019;-91
2023/09/11 03:07:53;;;;;;;14.23;9.25;;;20.50;99.90;;;;;;4975428;28;20029;-91
2023/09/11 03:10:18;;;;;;;17.00;9.88;;;20.40;99.90;;;;;;4986126;28;20026;-89
2023/09/11 03:12:44;;;;;;;18.92;10.20;;;20.50;99.90;;;;;;4994010;28;20041;-88
2023/09/11 03:15:10;;;;;;;16.20;9.88;;;20.50;99.90;;;;;;4992873;28;20022;-88
2023/09/11 03:17:36;;;;;;;17.13;9.70;;;20.40;99.90;;;;;;4993549;28;20042;-88
2023/09/11 03:20:02;;;;;;;18.70;10.75;;;20.40;99.90;;;;;;4992075;28;20026;-88
2023/09/11 03:22:29;;;;;;;17.58;10.95;;;20.20;99.90;;;;;;4992732;28;20038;-88
2023/09/11 03:24:54;;;;;;;18.67;10.40;;;20.10;99.90;;;;;;4992728;28;20049;-89
2023/09/11 03:27:20;;;;;;;17.90;10.38;;;20.20;99.90;;;;;;4992012;28;20409;-90
2023/09/11 03:29:45;;;;;;;18.60;10.57;;;20.20;99.90;;;;;;4992085;28;20034;-89
2023/09/11 03:32:11;;;;;;;15.80;10.10;;;20.20;99.90;;;;;;4992465;28;20030;-90
2023/09/11 03:34:36;;;;;;;17.23;10.20;;;20.30;99.90;;;;;;4992890;28;20033;-92
2023/09/11 03:37:02;;;;;;;17.77;10.23;;;20.30;99.90;;;;;;4992479;28;20576;-88
2023/09/11 03:39:28;;;;;;;21.02;11.43;;;20.20;99.90;;;;;;4993159;28;20026;-89
2023/09/11 03:41:54;;;;;;;24.17;11.88;;;20.20;99.90;;;;;;4992854;28;20109;-87
2023/09/11 03:44:20;;;;;;;23.85;12.52;;;20.20;99.90;;;;;;4992276;28;20114;-89
2023/09/11 03:46:45;;;;;;;17.98;11.65;;;20.20;99.90;;;;;;4992692;28;20038;-89
2023/09/11 03:49:11;;;;;;;19.08;10.73;;;20.30;99.90;;;;;;4993595;28;20026;-91
2023/09/11 03:51:36;;;;;;;15.65;10.63;;;20.20;99.90;;;;;;4992037;28;20108;-88
2023/09/11 03:54:07;;;;;;;18.60;10.93;;;20.20;99.90;;;;;;4992298;28;20499;-90
2023/09/11 03:56:33;;;;;;;18.83;10.63;;;20.30;99.90;;;;;;4991791;28;20461;-88
2023/09/11 03:58:59;;;;;;;19.17;10.82;;;20.40;99.90;;;;;;4993054;28;20482;-88
2023/09/11 04:01:25;;;;;;;17.85;10.07;;;20.40;99.90;;;;;;4991313;28;20054;-93
2023/09/11 04:03:50;;;;;;;15.68;10.13;;;20.40;99.90;;;;;;4992230;28;20030;-87
2023/09/11 04:06:16;;;;;;;17.30;10.15;;;20.40;99.90;;;;;;4992172;28;20073;-89
2023/09/11 04:08:41;;;;;;;18.52;10.98;;;20.40;99.90;;;;;;4992036;28;20029;-88
2023/09/11 04:11:07;;;;;;;18.40;11.10;;;20.50;99.90;;;;;;4993275;28;20061;-90
2023/09/11 04:13:33;;;;;;;19.80;10.13;;;20.40;99.90;;;;;;4991390;28;20080;-87
2023/09/11 04:15:59;;;;;;;18.35;9.80;;;20.40;99.90;;;;;;4992514;28;20378;-90
2023/09/11 04:18:25;;;;;;;18.45;10.80;;;20.30;99.90;;;;;;4984879;28;20030;-91
2023/09/11 04:20:50;;;;;;;17.10;10.15;;;20.50;99.90;;;;;;4973555;28;20031;-90
2023/09/11 04:23:16;;;;;;;20.48;11.60;;;20.50;99.90;;;;;;4983349;28;20121;-89
2023/09/11 04:25:44;;;;;;;19.50;11.10;;;20.30;99.90;;;;;;4993945;28;20473;-87
2023/09/11 04:28:10;;;;;;;18.92;10.65;;;20.20;99.90;;;;;;4991482;28;20072;-91
2023/09/11 04:30:36;;;;;;;17.85;10.80;;;20.10;99.90;;;;;;4989646;28;20513;-88
2023/09/11 04:33:02;;;;;;;13.75;9.43;;;20.20;99.90;;;;;;5003989;28;20049;-86
2023/09/11 04:35:28;;;;;;;16.40;9.63;;;20.30;99.90;;;;;;4996125;28;20496;-88
2023/09/11 04:37:54;;;;;;;20.40;11.30;;;20.50;99.90;;;;;;5011598;28;20045;-89
2023/09/11 04:40:19;;;;;;;19.55;11.05;;;20.40;99.90;;;;;;5011648;28;20388;-89
2023/09/11 04:42:45;;;;;;;21.00;11.35;;;20.30;99.90;;;;;;5011085;28;20037;-90
2023/09/11 04:45:11;;;;;;;16.95;10.75;;;20.20;99.90;;;;;;4993937;28;20038;-89
2023/09/11 04:47:36;;;;;;;19.52;10.77;;;20.30;99.90;;;;;;4991835;28;20033;-90
2023/09/11 04:50:03;;;;;;;15.55;10.95;;;20.40;99.90;;;;;;4992004;28;20560;-88
2023/09/11 04:52:29;;;;;;;19.33;11.20;;;20.40;99.90;;;;;;4992390;28;20101;-90
2023/09/11 04:54:55;;;;;;;21.10;10.85;;;20.30;99.90;;;;;;5006392;28;20025;-88
2023/09/11 04:57:22;;;;;;;22.13;11.20;;;20.40;99.90;;;;;;4973420;28;20069;-92
2023/09/11 04:59:48;;;;;;;20.27;10.80;;;20.30;99.90;;;;;;4985138;28;20490;-90
2023/09/11 05:02:13;;;;;;;18.10;10.80;;;20.40;99.90;;;;;;4993017;28;20056;-90
2023/09/11 05:04:39;;;;;;;22.05;11.93;;;20.40;99.90;;;;;;4993882;28;20026;-87
2023/09/11 05:07:05;;;;;;;18.02;11.38;;;20.40;99.90;;;;;;4974320;28;20041;-85
2023/09/11 05:09:31;;;;;;;20.38;11.25;;;20.30;99.90;;;;;;4986409;28;20066;-91
2023/09/11 05:11:57;;;;;;;17.58;10.82;;;20.40;99.90;;;;;;4991166;28;20025;-86
2023/09/11 05:14:22;;;;;;;22.95;11.63;;;20.40;99.90;;;;;;4998284;28;20110;-89
2023/09/11 05:16:49;;;;;;;17.58;10.93;;;20.30;99.90;;;;;;5009739;28;20469;-87
2023/09/11 05:19:14;;;;;;;17.40;10.07;;;20.20;99.90;;;;;;5002902;28;20029;-90
2023/09/11 05:21:40;;;;;;;19.08;11.30;;;20.30;99.90;;;;;;4991284;28;20034;-91
2023/09/11 05:24:06;;;;;;;15.82;10.85;;;20.10;99.90;;;;;;4991365;28;20085;-91
2023/09/11 05:26:32;;;;;;;21.52;10.88;;;20.10;99.90;;;;;;4992790;28;20101;-90
2023/09/11 05:28:57;;;;;;;19.10;10.85;;;20.30;99.90;;;;;;4988892;28;20034;-91
2023/09/11 05:31:23;;;;;;;16.08;10.18;;;20.30;99.90;;;;;;4989382;28;20022;-86
2023/09/11 05:33:49;;;;;;;18.08;10.55;;;20.40;99.90;;;;;;4989470;28;20062;-84
2023/09/11 05:36:14;;;;;;;17.35;10.10;;;20.40;99.90;;;;;;4989584;28;20022;-85
2023/09/11 05:38:40;;;;;;;16.05;9.88;;;20.40;99.90;;;;;;4989452;28;20371;-86
2023/09/11 05:41:06;;;;;;;15.43;9.23;;;20.30;99.90;;;;;;4990190;28;20034;-85
2023/09/11 05:43:31;;;;;;;16.60;10.48;;;20.50;99.90;;;;;;4978829;28;20133;-85
2023/09/11 05:45:57;;;;;;;18.77;10.13;;;20.40;99.90;;;;;;4978079;28;20036;-83
2023/09/11 05:48:23;;;;;;;16.30;10.02;;;20.50;99.90;;;;;;4991195;28;20034;-85
2023/09/11 05:50:49;;;;;;;15.10;9.38;;;20.50;99.90;;;;;;4990664;28;20517;-85
2023/09/11 05:53:14;;;;;;;15.93;9.68;;;20.50;99.90;;;;;;4987673;28;20034;-86
2023/09/11 05:55:40;;;;;;;14.27;9.45;;;20.50;99.90;;;;;;4988723;28;20030;-87
2023/09/11 05:58:06;;;;;;;18.58;9.65;;;20.60;99.90;;;;;;4991057;28;20498;-87
2023/09/11 06:00:31;;;;;;;15.50;9.25;;;20.60;99.90;;;;;;4988814;28;20074;-86
2023/09/11 06:02:57;;;;;;;16.15;8.75;;;20.60;99.90;;;;;;4988881;28;20088;-85
2023/09/11 06:05:23;;;;;;;16.35;9.50;;;20.70;99.90;;;;;;4990177;28;20093;-87
2023/09/11 06:07:49;;;;;;;17.10;10.07;;;20.70;99.90;;;;;;4990437;28;20026;-88
2023/09/11 06:10:14;;;;;;;18.40;9.65;;;20.60;99.90;;;;;;4988259;28;20034;-87
2023/09/11 06:12:40;;;;;;;16.95;9.20;;;20.70;99.90;;;;;;4988968;28;20034;-87
2023/09/11 06:15:07;;;;;;;18.33;9.60;;;20.70;99.90;;;;;;4990918;28;20030;-87
2023/09/11 06:17:33;;;;;;;16.85;9.30;;;20.80;99.90;;;;;;4989612;28;20049;-88
2023/09/11 06:19:59;;;;;;;13.88;9.45;;;20.80;99.90;;;;;;4988084;28;20027;-86
2023/09/11 06:22:24;;;;;;;16.75;8.63;;;20.80;99.90;;;;;;4988511;28;20030;-86
2023/09/11 06:24:50;;;;;;;12.10;8.10;;;20.80;99.90;;;;;;4987822;28;20026;-85
2023/09/11 06:27:16;;;;;;;13.65;8.43;;;20.70;99.90;;;;;;4988549;28;20410;-85
2023/09/11 06:29:41;;;;;;;13.23;8.43;;;20.80;99.90;;;;;;4987718;28;20037;-87
2023/09/11 06:32:08;;;;;;;14.07;8.40;;;20.80;99.90;;;;;;4989871;28;20084;-87
2023/09/11 06:34:34;;;;;;;12.20;8.60;;;20.80;99.90;;;;;;4989227;28;20398;-87
2023/09/11 06:37:00;;;;;;;14.60;8.23;;;20.80;99.90;;;;;;4989859;28;20037;-86
2023/09/11 06:39:25;;;;;;;15.27;8.10;;;20.90;99.90;;;;;;4988267;28;20030;-87
2023/09/11 06:41:51;;;;;;;13.07;8.20;;;20.90;99.90;;;;;;4989979;28;20442;-87
2023/09/11 06:44:17;;;;;;;13.90;7.85;;;20.90;99.90;;;;;;4989894;28;20150;-87
2023/09/11 06:46:42;;;;;;;12.32;7.97;;;21.00;99.90;;;;;;4989886;28;20081;-86
2023/09/11 06:49:09;;;;;;;13.10;7.85;;;21.00;99.90;;;;;;4989320;28;20356;-87
2023/09/11 06:51:35;;;;;;;10.82;6.97;;;21.00;99.90;;;;;;4990678;28;20023;-87
2023/09/11 06:54:01;;;;;;;12.02;7.55;;;21.10;99.90;;;;;;4987817;28;20022;-88
2023/09/11 06:56:26;;;;;;;13.90;7.15;;;21.10;99.90;;;;;;4989726;28;20367;-86
2023/09/11 06:58:52;;;;;;;13.00;7.47;;;21.10;99.90;;;;;;4987932;28;20065;-88
2023/09/11 07:01:17;;;;;;;17.48;7.70;;;21.10;99.90;;;;;;4989956;28;20556;-88
2023/09/11 07:03:45;;;;;;;10.68;7.05;;;21.10;99.90;;;;;;4987776;28;20068;-88
2023/09/11 07:06:11;;;;;;;15.52;7.90;;;21.10;99.90;;;;;;4990931;28;20030;-85
2023/09/11 07:08:37;;;;;;;14.93;6.63;;;21.10;99.90;;;;;;4992182;28;20099;-87
2023/09/11 07:11:02;;;;;;;13.35;7.50;;;21.10;99.90;;;;;;4992176;28;20054;-88
2023/09/11 07:13:28;;;;;;;12.48;7.38;;;21.10;99.90;;;;;;4992012;28;20548;-89
2023/09/11 07:15:58;;;;;;;16.75;7.82;;;21.10;99.90;;;;;;4993286;28;20115;-87
2023/09/11 07:18:25;;;;;;;15.38;7.93;;;21.10;99.90;;;;;;4991870;28;20494;-88
2023/09/11 07:20:51;;;;;;;13.43;7.75;;;21.10;99.90;;;;;;4991970;28;20022;-88
2023/09/11 07:23:19;;;;;;;16.33;8.15;;;21.20;99.90;;;;;;4993186;28;20040;-87
2023/09/11 07:25:46;;;;;;;14.43;8.82;;;21.20;99.90;;;;;;4992347;28;20034;-86
2023/09/11 07:28:13;;;;;;;12.00;7.97;;;21.20;99.90;;;;;;4992787;28;20113;-85
2023/09/11 07:30:39;;;;;;;15.68;8.05;;;21.10;99.90;;;;;;4993728;28;20505;-88
2023/09/11 07:33:05;;;;;;;16.25;7.40;;;21.10;99.90;;;;;;4991370;28;20116;-88
2023/09/11 07:35:30;;;;;;;12.20;7.57;;;21.00;99.90;;;;;;4992889;28;20022;-88
2023/09/11 07:37:56;;;;;;;15.23;8.00;;;21.10;99.90;;;;;;4992748;28;20398;-87
2023/09/11 07:40:22;;;;;;;16.42;7.88;;;20.90;99.90;;;;;;4991657;28;20073;-88
2023/09/11 07:42:47;;;;;;;12.80;7.35;;;20.90;99.90;;;;;;4992211;28;20508;-87
2023/09/11 07:45:13;;;;;;;17.45;7.80;;;21.00;99.90;;;;;;4992851;28;20022;-87
2023/09/11 07:47:38;;;;;;;16.95;8.07;;;21.00;99.90;;;;;;4992998;28;20034;-88
2023/09/11 07:50:04;;;;;;;14.30;8.30;;;21.10;99.90;;;;;;4992642;28;20060;-86
2023/09/11 07:52:30;;;;;;;12.27;7.28;;;21.20;99.90;;;;;;4990794;28;20019;-88
2023/09/11 07:54:57;;;;;;;13.25;8.52;;;21.30;99.90;;;;;;4992501;28;20034;-87
2023/09/11 07:57:23;;;;;;;12.57;8.05;;;21.30;99.90;;;;;;4991142;28;20040;-86
2023/09/11 07:59:48;;;;;;;14.15;8.40;;;21.20;99.90;;;;;;4991411;28;20022;-88
2023/09/11 08:02:15;;;;;;;14.57;7.47;;;21.20;99.90;;;;;;4991659;28;20050;-88
2023/09/11 08:04:41;;;;;;;14.77;8.50;;;21.10;99.90;;;;;;4993313;28;20035;-86
2023/09/11 08:07:06;;;;;;;13.35;7.88;;;21.20;99.90;;;;;;4991094;28;20033;-89
2023/09/11 08:09:32;;;;;;;14.05;7.82;;;21.20;99.90;;;;;;4990953;28;20026;-88
2023/09/11 08:11:58;;;;;;;15.43;7.50;;;21.30;99.90;;;;;;4990905;28;20041;-86
2023/09/11 08:14:23;;;;;;;12.70;7.00;;;21.40;99.90;;;;;;4992252;28;20031;-88
2023/09/11 08:16:49;;;;;;;12.05;7.28;;;21.50;99.90;;;;;;4990294;28;20031;-88
2023/09/11 08:19:15;;;;;;;14.07;6.97;;;21.40;99.90;;;;;;4992049;28;20470;-86
2023/09/11 08:21:40;;;;;;;13.13;6.80;;;21.40;99.90;;;;;;4992028;28;20355;-88
2023/09/11 08:24:06;;;;;;;14.38;7.18;;;21.50;99.90;;;;;;4991789;28;20050;-88
2023/09/11 08:26:33;;;;;;;11.85;6.10;;;21.40;99.90;;;;;;4991754;28;20074;-87
2023/09/11 08:28:59;;;;;;;8.82;6.00;;;21.50;99.90;;;;;;4990835;28;20032;-86
2023/09/11 08:31:24;;;;;;;12.80;6.35;;;21.50;99.90;;;;;;4990969;28;20076;-87
2023/09/11 08:33:50;;;;;;;11.25;6.30;;;21.30;99.90;;;;;;4990570;28;20364;-87
2023/09/11 08:36:17;;;;;;;12.65;6.80;;;21.20;99.90;;;;;;4990799;28;20030;-86
2023/09/11 08:38:44;;;;;;;14.00;6.65;;;21.20;99.90;;;;;;4992449;28;20033;-87
2023/09/11 08:41:12;;;;;;;12.98;6.60;;;21.40;99.90;;;;;;4985435;28;20019;-88
2023/09/11 08:43:39;;;;;;;11.15;6.40;;;21.20;99.90;;;;;;4971086;28;20059;-88
2023/09/11 08:46:07;;;;;;;12.68;6.32;;;21.10;99.90;;;;;;4972115;28;20361;-87
2023/09/11 08:48:34;;;;;;;11.65;6.10;;;21.20;99.90;;;;;;4970890;28;20030;-86
2023/09/11 08:51:11;;;;;;;15.27;6.10;;;21.10;99.90;;;;;;4982706;28;20077;-87
2023/09/11 08:53:40;;;;;;;12.80;6.03;;;21.10;99.90;;;;;;4991479;28;20037;-87
2023/09/11 08:56:06;;;;;;;12.25;5.72;;;21.20;99.90;;;;;;4991140;28;20080;-88
2023/09/11 08:58:34;;;;;;;13.63;5.65;;;21.20;99.90;;;;;;4991266;28;20023;-87
2023/09/11 09:01:01;;;;;;;14.85;6.60;;;21.30;99.90;;;;;;4989017;28;20105;-87
2023/09/11 09:03:29;;;;;;;12.90;6.28;;;21.40;99.90;;;;;;4991174;28;20034;-87
2023/09/11 09:05:56;;;;;;;13.07;6.38;;;21.40;99.90;;;;;;4991273;28;20018;-87
2023/09/11 09:08:22;;;;;;;13.60;6.32;;;21.30;99.90;;;;;;4991168;28;20023;-85
2023/09/11 09:10:48;;;;;;;11.63;5.65;;;21.30;99.90;;;;;;4988774;28;20509;-87
2023/09/11 09:13:14;;;;;;;10.48;5.15;;;21.40;99.90;;;;;;4991664;28;20390;-87
2023/09/11 09:15:41;;;;;;;14.50;6.38;;;21.60;99.90;;;;;;4989064;28;20037;-87
2023/09/11 09:18:08;;;;;;;10.27;6.43;;;21.40;99.90;;;;;;4991038;28;20536;-85
2023/09/11 09:20:34;;;;;;;9.90;6.38;;;21.40;99.90;;;;;;4988644;28;20037;-87
2023/09/11 09:23:00;;;;;;;10.75;6.07;;;21.40;99.90;;;;;;4990562;28;20042;-86
2023/09/11 09:25:28;;;;;;;14.43;6.60;;;21.50;99.90;;;;;;4990793;28;20034;-86
2023/09/11 09:27:56;;;;;;;10.45;6.10;;;21.60;99.90;;;;;;4990854;28;20382;-90
2023/09/11 09:30:27;;;;;;;11.38;6.13;;;21.70;99.90;;;;;;4989101;28;20498;-86
2023/09/11 09:32:53;;;;;;;12.70;5.97;;;21.70;99.90;;;;;;4990887;28;20022;-87
2023/09/11 09:35:21;;;;;;;9.43;5.53;;;21.60;99.90;;;;;;4988788;28;20035;-87
2023/09/11 09:37:55;;;;;;;13.55;6.85;;;21.80;99.90;;;;;;4990238;28;20367;-86
2023/09/11 09:40:33;;;;;;;13.93;6.68;;;21.80;99.90;;;;;;4988231;28;20046;-85
2023/09/11 09:42:59;;;;;;;10.90;6.35;;;21.80;99.90;;;;;;4990541;28;20030;-85
2023/09/11 09:45:31;;;;;;;10.63;6.15;;;21.80;99.90;;;;;;4989169;28;20394;-89
2023/09/11 09:48:14;;;;;;;10.90;6.20;;;21.70;99.90;;;;;;4990351;28;20058;-87
2023/09/11 09:50:57;;;;;;;14.32;7.10;;;21.80;99.90;;;;;;4988768;28;20038;-88
2023/09/11 09:53:34;;;;;;;10.80;6.10;;;21.80;99.90;;;;;;4989241;28;20022;-87
2023/09/11 09:56:04;;;;;;;10.87;6.13;;;22.00;99.90;;;;;;4990483;28;20057;-85
2023/09/11 09:58:39;;;;;;;10.85;5.47;;;22.10;99.90;;;;;;4989260;28;20057;-86
2023/09/11 10:01:06;;;;;;;8.82;5.07;;;22.00;99.90;;;;;;4987917;28;20026;-85
2023/09/11 10:03:45;;;;;;;12.65;6.32;;;22.10;99.90;;;;;;4989644;28;20084;-87
2023/09/11 10:06:18;;;;;;;11.52;6.35;;;22.10;99.90;;;;;;4990233;28;20101;-86
2023/09/11 10:08:46;;;;;;;9.77;7.05;;;22.00;99.90;;;;;;4991030;28;20034;-86
2023/09/11 10:11:31;;;;;;;14.15;7.28;;;22.10;99.90;;;;;;4989344;28;20593;-86
2023/09/11 10:13:59;;;;;;;12.45;7.88;;;22.10;99.90;;;;;;4988283;28;20034;-88
2023/09/11 10:16:25;;;;;;;12.00;7.17;;;22.20;99.90;;;;;;4988994;28;20509;-87
2023/09/11 10:18:55;;;;;;;18.02;7.30;;;22.10;99.90;;;;;;4989132;28;20501;-88
2023/09/11 10:21:21;;;;;;;15.45;8.05;;;22.00;99.90;;;;;;4989211;28;20034;-87
2023/09/11 10:23:47;;;;;;;11.20;7.40;;;22.10;99.90;;;;;;4989666;28;20404;-89
2023/09/11 10:26:18;;;;;;;11.30;6.68;;;22.10;99.90;;;;;;4990249;28;20034;-86
2023/09/11 10:28:48;;;;;;;11.18;6.20;;;22.20;99.90;;;;;;4989167;28;20050;-89
2023/09/11 10:31:25;;;;;;;12.18;6.85;;;22.40;99.90;;;;;;4989012;28;20031;-87
2023/09/11 10:33:55;;;;;;;10.93;6.05;;;22.50;99.90;;;;;;4990698;28;20033;-85
2023/09/11 10:36:36;;;;;;;14.48;6.57;;;22.50;99.90;;;;;;4990556;28;20037;-86
2023/09/11 10:39:04;;;;;;;12.02;7.15;;;22.60;99.90;;;;;;4988764;28;20550;-87
2023/09/11 10:41:30;;;;;;;12.20;6.47;;;22.50;99.90;;;;;;4991668;28;20030;-86
2023/09/11 10:43:56;;;;;;;10.40;7.75;;;22.60;99.90;;;;;;4977763;28;20035;-87
2023/09/11 10:46:22;;;;;;;11.30;7.15;;;22.50;99.90;;;;;;4974227;28;20390;-85
2023/09/11 10:48:51;;;;;;;12.27;6.80;;;22.60;99.90;;;;;;4995895;28;20058;-87
2023/09/11 10:51:17;;;;;;;13.38;6.90;;;22.70;99.90;;;;;;5006494;28;20042;-87
2023/09/11 10:53:43;;;;;;;13.00;6.30;;;22.70;99.90;;;;;;4974085;28;20035;-87
2023/09/11 10:56:09;;;;;;;9.68;5.82;;;22.60;99.90;;;;;;4974204;28;20101;-88
2023/09/11 10:58:35;;;;;;;9.43;5.75;;;22.60;99.90;;;;;;4980770;28;20149;-87
2023/09/11 11:01:05;;;;;;;10.60;5.35;;;22.70;99.90;;;;;;4993518;28;20077;-87
2023/09/11 11:03:32;;;;;;;8.82;5.30;;;23.00;99.90;;;;;;4993435;28;20026;-88
2023/09/11 11:05:59;;;;;;;9.47;5.27;;;23.00;99.90;;;;;;4993303;28;20034;-88
2023/09/11 11:08:25;;;;;;;13.25;6.13;;;23.00;99.90;;;;;;4991419;28;20030;-89
2023/09/11 11:10:55;;;;;;;11.10;5.85;;;23.00;99.90;;;;;;4994355;28;20153;-89
2023/09/11 11:13:21;;;;;;;9.60;5.72;;;22.90;99.90;;;;;;4994158;28;20023;-88
2023/09/11 11:15:47;;;;;;;11.73;6.07;;;22.90;99.90;;;;;;4993409;28;20105;-87
2023/09/11 11:18:23;;;;;;;9.23;5.90;;;22.90;99.90;;;;;;4992498;28;20429;-88
2023/09/11 11:21:02;;;;;;;8.80;5.50;;;22.80;99.90;;;;;;4994175;28;20045;-88
2023/09/11 11:23:35;;;;;;;9.73;4.97;;;22.90;99.90;;;;;;4992021;28;20030;-87
2023/09/11 11:26:09;;;;;;;8.25;5.88;;;23.00;99.90;;;;;;4993306;28;20053;-87
2023/09/11 11:28:42;;;;;;;10.90;5.82;;;23.00;99.90;;;;;;4991245;28;20026;-86
2023/09/11 11:31:12;;;;;;;10.00;5.50;;;23.10;99.90;;;;;;4993124;28;20038;-89
2023/09/11 11:33:40;;;;;;;7.43;5.38;;;23.20;99.90;;;;;;4990974;28;20406;-88
2023/09/11 11:36:11;;;;;;;12.38;5.97;;;23.10;99.90;;;;;;4992915;28;20030;-88
2023/09/11 11:38:38;;;;;;;9.57;5.25;;;23.10;99.90;;;;;;4990691;28;20142;-88
2023/09/11 11:41:04;;;;;;;8.87;5.57;;;23.10;99.90;;;;;;4992993;28;20031;-88
2023/09/11 11:43:31;;;;;;;10.20;5.53;;;23.30;99.90;;;;;;4991819;28;20038;-89
2023/09/11 11:45:57;;;;;;;10.27;5.38;;;23.40;99.90;;;;;;4992754;28;20584;-86
2023/09/11 11:48:22;;;;;;;7.30;5.20;;;23.20;99.90;;;;;;4991348;28;20038;-87
2023/09/11 11:50:49;;;;;;;10.43;6.10;;;23.00;99.90;;;;;;4991793;28;20482;-89
2023/09/11 11:53:20;;;;;;;13.02;6.07;;;23.10;99.90;;;;;;4991763;28;20357;-86
2023/09/11 11:55:45;;;;;;;10.90;5.18;;;23.00;99.90;;;;;;4991522;28;20037;-88
2023/09/11 11:58:13;;;;;;;10.38;5.30;;;23.10;99.90;;;;;;4990360;28;20042;-87
2023/09/11 12:00:40;;;;;;;10.90;5.60;;;23.20;99.90;;;;;;4992462;28;20026;-87
2023/09/11 12:03:07;;;;;;;10.43;5.57;;;23.10;99.90;;;;;;4992615;28;20380;-88
2023/09/11 12:05:35;;;;;;;7.13;4.75;;;23.20;99.90;;;;;;4991112;28;20033;-87
2023/09/11 12:08:02;;;;;;;10.20;5.63;;;23.30;99.90;;;;;;4977300;28;20037;-87
2023/09/11 12:10:29;;;;;;;12.98;6.30;;;23.30;99.90;;;;;;4989789;28;20034;-89
2023/09/11 12:12:55;;;;;;;11.38;5.75;;;23.30;99.90;;;;;;4993312;28;20030;-87
2023/09/11 12:15:20;;;;;;;8.90;5.07;;;23.40;99.90;;;;;;4990294;28;20034;-89
2023/09/11 12:17:50;;;;;;;9.07;5.50;;;23.60;99.90;;;;;;4992107;28;20038;-89
2023/09/11 12:20:22;;;;;;;8.95;5.30;;;23.70;99.90;;;;;;4992285;28;20082;-89
2023/09/11 12:22:48;;;;;;;10.85;5.72;;;23.80;99.90;;;;;;4990805;28;20394;-87
2023/09/11 12:25:15;;;;;;;8.55;5.55;;;23.80;99.90;;;;;;4991594;28;20109;-88
2023/09/11 12:27:43;;;;;;;9.40;5.63;;;23.60;99.90;;;;;;4990135;28;20030;-87
2023/09/11 12:30:10;;;;;;;7.65;5.35;;;23.60;99.90;;;;;;4990722;28;20058;-88
2023/09/11 12:32:35;;;;;;;8.73;5.90;;;23.80;99.90;;;;;;4990991;28;20025;-89
2023/09/11 12:35:02;;;;;;;8.52;5.22;;;23.80;99.90;;;;;;4991907;28;20393;-88
2023/09/11 12:37:29;;;;;;;10.93;5.00;;;24.10;99.90;;;;;;4990705;28;20039;-88